Lakeland Linder Regional Airport
KLAL : rendu visible

Aérodrome :











RETROUVEZ-NOUS SUR...

 
LOGIN :

S'inscrire | Disclaimer

   EN    FR    IT 

 









Légende :    VFR   VFR Marginal   IFR   IFR Intensif   IFR Très Intensif
Visi : 
Plafond : 
>= 8 km
>= 3000ft
5 à 8 km
1000 à 3000 ft
1500m à 5 km
500 à 1000 ft
800 à 1500m
200 à 500 ft
< 800m
< 200 ft
Symboles :   Orages  Brouillard  Fortes neiges  Fortes précipitations  Vent > 20 kt






- Altitude de l'aérodrome : 142 ft


KLAL - Lakeland Linder Regional

DERNIER METAR :
  • 040150Z 30005KT 10SM SKC 22/10 A2998

METARs EXPIRÉS :
  • 040050Z 31007KT 10SM SKC 23/10 A2997
  • 032350Z 31010KT 10SM BKN150 24/12 A2995

TAF KLAL
Valide du 04 à 00h jusqu'au 05 à 00h UTC


032322Z 0400/0424 35005KT P6SM BKN250
FM040100 VRB03KT P6SM BKN250
FM041700 26005KT P6SM FEW040 SCT120 AMD NOT SKED 0401/0411



MET'MAP, la Météo Aéronautique d'un coup d'oeil ! - Copyright ORBIFLY Décembre 2007 - Disclaimer

ORBIFLY MET'MAP TEAM :

Programmation & Développement : Alexandra Zaïnal
Sur une idée originale de : Baudouin d'Aumeries
Assistance à la programmation : Marc-Olivier Méhu
Soutien technique & logistique : Manuel Goepfert

Contact : metmap@orbifly.com




SOURCES & CREDITS :

   NOAA       Earth
Advisory